Pakpattan Weather



Pakpattan's Current Weather

Temprature 44.45o clear sky

clear sky

Rain: 0 %

Min Temprature44.45o
Max Temprature44.45o
Humidity13
Wind Speed4.31 m/h
Sun Rise05:06:07
Sun Set19:12:02
Current Time: 26-Jun-2019 15:32:44
Lat/Lon: 30.34, 73.39




Pakpattan's Geo Location



Pakpattan's Weather Forecast

Time Overall Temp Min Temp Max Temp Humidity Wind Speed Rain
26-Jun-2019 (Wed)
17:00:00 clear sky 44.450 44.450 44.450 13 4.31 m/h 0 %
20:00:00 clear sky 39.550 39.547 39.550 21 6.04 m/h 0 %
23:00:00 clear sky 37.340 37.340 37.340 24 3.34 m/h 0 %
27-Jun-2019 (Thu)
02:00:00 clear sky 35.880 35.879 35.880 27 2.72 m/h 0 %
05:00:00 clear sky 34.365 34.365 34.365 30 3.4 m/h 0 %
08:00:00 clear sky 39.150 39.150 39.150 26 4.38 m/h 0 %
11:00:00 clear sky 44.574 44.574 44.574 16 5.73 m/h 0 %
14:00:00 scattered clouds 44.950 44.950 44.950 13 4.9 m/h 0 %
17:00:00 scattered clouds 42.280 42.280 42.280 17 9.89 m/h 0 %
20:00:00 light rain 38.394 38.394 38.394 22 3.91 m/h 6 %
23:00:00 scattered clouds 36.735 36.735 36.735 24 3.14 m/h 0 %
28-Jun-2019 (Fri)
02:00:00 clear sky 35.628 35.628 35.628 24 3.69 m/h 0 %
05:00:00 clear sky 34.328 34.328 34.328 30 3.54 m/h 0 %
08:00:00 clear sky 36.749 36.749 36.749 36 5.14 m/h 0 %
11:00:00 clear sky 42.325 42.325 42.325 21 5.11 m/h 0 %
14:00:00 clear sky 44.931 44.931 44.931 16 4.07 m/h 0 %
17:00:00 clear sky 45.450 45.450 45.450 13 4.33 m/h 0 %
20:00:00 clear sky 41.450 41.450 41.450 18 5.25 m/h 0 %
23:00:00 clear sky 38.972 38.972 38.972 21 4.45 m/h 0 %
29-Jun-2019 (Sat)
02:00:00 clear sky 37.272 37.272 37.272 25 5.12 m/h 0 %
05:00:00 clear sky 35.329 35.329 35.329 35 6.38 m/h 0 %
08:00:00 clear sky 36.237 36.237 36.237 37 7.66 m/h 0 %
11:00:00 clear sky 42.150 42.150 42.150 21 6.84 m/h 0 %
14:00:00 clear sky 46.150 46.150 46.150 13 5.78 m/h 0 %
17:00:00 clear sky 45.791 45.791 45.791 11 5.91 m/h 0 %
20:00:00 clear sky 41.450 41.450 41.450 16 5.51 m/h 0 %
23:00:00 clear sky 39.150 39.150 39.150 20 6 m/h 0 %
30-Jun-2019 (Sun)
02:00:00 clear sky 37.296 37.296 37.296 25 6.84 m/h 0 %
05:00:00 clear sky 35.192 35.192 35.192 36 6.49 m/h 0 %
08:00:00 clear sky 35.822 35.822 35.822 44 7.33 m/h 0 %
11:00:00 clear sky 41.818 41.818 41.818 28 6.63 m/h 0 %
14:00:00 clear sky 46.009 46.009 46.009 15 5.47 m/h 0 %
17:00:00 clear sky 45.950 45.950 45.950 13 5.69 m/h 0 %
20:00:00 clear sky 41.650 41.650 41.650 18 5.72 m/h 0 %
23:00:00 clear sky 39.650 39.650 39.650 19 6.21 m/h 0 %
01-Jul-2019 (Mon)
02:00:00 clear sky 37.550 37.550 37.550 23 6.9 m/h 0 %
05:00:00 clear sky 34.835 34.835 34.835 47 7.97 m/h 0 %
08:00:00 clear sky 35.550 35.550 35.550 46 7.98 m/h 0 %
11:00:00 clear sky 41.750 41.750 41.750 28 7.37 m/h 0 %
14:00:00 clear sky 46.650 46.650 46.650 14 5.36 m/h 0 %

Famous Cities (60)